createdAt,value
2023-05-04T00:00:50.707Z,8.11
2023-05-04T00:03:40.228Z,8.03
2023-05-04T00:06:28.655Z,7.95
2023-05-04T00:09:16.411Z,7.88
2023-05-04T00:12:04.743Z,7.83
2023-05-04T00:14:52.957Z,7.77
2023-05-04T00:17:41.071Z,7.72
2023-05-04T00:20:30.238Z,7.69
2023-05-04T00:23:18.134Z,7.64
2023-05-04T00:26:06.333Z,7.58
2023-05-04T00:28:54.267Z,7.52
2023-05-04T00:31:42.168Z,7.48
2023-05-04T00:34:31.888Z,7.41
2023-05-04T00:37:21.378Z,7.36
2023-05-04T00:40:11.141Z,7.38
2023-05-04T00:42:58.911Z,7.31
2023-05-04T00:45:47.429Z,7.25
2023-05-04T00:48:35.038Z,7.19
2023-05-04T00:51:27.780Z,7.12
2023-05-04T00:54:18.844Z,7.09
2023-05-04T00:57:07.223Z,7.04
2023-05-04T00:59:55.429Z,7.01
2023-05-04T01:02:43.581Z,6.96
2023-05-04T01:05:36.794Z,6.91
2023-05-04T01:08:28.669Z,6.86
2023-05-04T01:11:23.611Z,6.79
2023-05-04T01:14:13.642Z,6.72
2023-05-04T01:17:03.424Z,6.67
2023-05-04T01:19:54.041Z,6.64
2023-05-04T01:22:43.584Z,6.59
2023-05-04T01:25:37.054Z,6.54
2023-05-04T01:28:31.764Z,6.50
2023-05-04T01:31:24.667Z,6.44
2023-05-04T01:34:13.203Z,6.41
2023-05-04T01:37:01.752Z,6.36
2023-05-04T01:39:51.753Z,6.34
2023-05-04T01:42:39.588Z,6.27
2023-05-04T01:45:27.488Z,6.23
2023-05-04T01:48:15.524Z,6.18
2023-05-04T01:51:03.730Z,6.16
2023-05-04T01:53:51.937Z,6.09
2023-05-04T01:56:41.349Z,6.06
2023-05-04T01:59:28.934Z,6.03
2023-05-04T02:02:16.961Z,6.00
2023-05-04T02:05:05.227Z,5.98
2023-05-04T02:07:53.023Z,5.92
2023-05-04T02:10:41.203Z,5.88
2023-05-04T02:13:30.450Z,5.84
2023-05-04T02:16:18.734Z,5.81
2023-05-04T02:19:06.825Z,5.78
2023-05-04T02:21:54.857Z,5.75
2023-05-04T02:24:44.324Z,5.68
2023-05-04T02:27:32.314Z,5.64
2023-05-04T02:30:21.595Z,5.64
2023-05-04T02:33:10.023Z,5.62
2023-05-04T02:35:58.276Z,5.59
2023-05-04T02:38:46.527Z,5.55
2023-05-04T02:41:34.640Z,5.50
2023-05-04T02:44:22.794Z,5.47
2023-05-04T02:47:12.197Z,5.46
2023-05-04T02:50:00.054Z,5.43
2023-05-04T02:52:48.234Z,5.41
2023-05-04T02:55:35.891Z,5.39
2023-05-04T02:58:23.958Z,5.35
2023-05-04T03:01:12.491Z,5.36
2023-05-04T03:04:01.812Z,5.35
2023-05-04T03:06:49.724Z,5.28
2023-05-04T03:09:37.724Z,5.25
2023-05-04T03:12:26.203Z,5.22
2023-05-04T03:15:14.244Z,5.16
2023-05-04T03:18:02.551Z,5.19
2023-05-04T03:20:51.781Z,5.19
2023-05-04T03:23:39.821Z,5.18
2023-05-04T03:26:27.640Z,5.10
2023-05-04T03:29:18.709Z,5.05
2023-05-04T03:32:07.105Z,5.01
2023-05-04T03:34:55.174Z,4.96
2023-05-04T03:37:44.678Z,4.95
2023-05-04T03:40:32.282Z,4.91
2023-05-04T03:43:20.043Z,4.89
2023-05-04T03:46:08.205Z,4.88
2023-05-04T03:48:56.027Z,4.86
2023-05-04T03:51:43.905Z,4.87
2023-05-04T03:54:33.192Z,4.86
2023-05-04T03:57:22.378Z,4.83
2023-05-04T04:00:11.841Z,4.81
2023-05-04T04:02:59.963Z,4.78
2023-05-04T04:05:47.762Z,4.74
2023-05-04T04:08:35.872Z,4.73
2023-05-04T04:11:26.391Z,4.70
2023-05-04T04:14:14.429Z,4.69
2023-05-04T04:17:02.604Z,4.68
2023-05-04T04:19:50.334Z,4.68
2023-05-04T04:22:38.421Z,4.66
2023-05-04T04:25:26.072Z,4.66
2023-05-04T04:28:16.530Z,4.64
2023-05-04T04:31:04.840Z,4.64
2023-05-04T04:33:52.893Z,4.63
2023-05-04T04:36:40.659Z,4.65
2023-05-04T04:39:28.974Z,4.74
2023-05-04T04:42:17.441Z,4.78
2023-05-04T04:45:08.079Z,4.76
2023-05-04T04:47:56.219Z,4.77
2023-05-04T04:50:44.258Z,4.79
2023-05-04T04:53:32.370Z,4.82
2023-05-04T04:56:21.591Z,4.86
2023-05-04T04:59:10.041Z,4.90
2023-05-04T05:01:59.311Z,4.94
2023-05-04T05:04:47.634Z,5.12
2023-05-04T05:07:35.486Z,5.09
2023-05-04T05:10:23.770Z,5.14
2023-05-04T05:13:12.022Z,5.19
2023-05-04T05:16:00.270Z,5.27
2023-05-04T05:18:49.759Z,5.40
2023-05-04T05:21:37.575Z,5.42
2023-05-04T05:24:29.939Z,5.52
2023-05-04T05:27:18.138Z,5.62
2023-05-04T05:30:09.504Z,5.66
2023-05-04T05:32:57.735Z,5.83
2023-05-04T05:35:47.413Z,6.04
2023-05-04T05:38:35.450Z,6.18
2023-05-04T05:41:24.004Z,6.20
2023-05-04T05:44:13.065Z,6.18
2023-05-04T05:47:02.347Z,6.32
2023-05-04T05:49:50.506Z,6.55
2023-05-04T05:52:40.051Z,6.76
2023-05-04T05:55:27.869Z,6.92
2023-05-04T05:58:15.796Z,7.13
2023-05-04T06:01:04.038Z,7.14
2023-05-04T06:03:51.933Z,7.60
2023-05-04T06:06:40.184Z,7.81
2023-05-04T06:09:29.422Z,7.92
2023-05-04T06:12:17.602Z,8.20
2023-05-04T06:15:06.438Z,8.33
2023-05-04T06:17:54.407Z,8.51
2023-05-04T06:20:42.190Z,8.68
2023-05-04T06:23:31.457Z,8.94
2023-05-04T06:26:22.040Z,9.21
2023-05-04T06:29:09.971Z,9.32
2023-05-04T06:31:58.183Z,9.55
2023-05-04T06:34:46.092Z,9.78
2023-05-04T06:37:34.168Z,9.91
2023-05-04T06:40:22.264Z,10.14
2023-05-04T06:43:11.678Z,10.39
2023-05-04T06:46:03.231Z,10.42
2023-05-04T06:48:51.429Z,10.65
2023-05-04T06:51:39.499Z,10.91
2023-05-04T06:54:27.548Z,11.01
2023-05-04T06:57:15.337Z,11.31
2023-05-04T07:00:08.553Z,11.37
2023-05-04T07:02:57.091Z,11.52
2023-05-04T07:05:45.496Z,11.83
2023-05-04T07:08:34.090Z,11.99
2023-05-04T07:11:22.024Z,12.17
2023-05-04T07:14:11.265Z,12.39
2023-05-04T07:17:02.165Z,12.60
2023-05-04T07:19:52.289Z,12.92
2023-05-04T07:22:40.377Z,13.17
2023-05-04T07:25:29.077Z,13.38
2023-05-04T07:28:17.201Z,13.62
2023-05-04T07:31:05.438Z,13.98
2023-05-04T07:33:54.814Z,14.09
2023-05-04T07:36:43.532Z,14.53
2023-05-04T07:39:31.377Z,14.66
2023-05-04T07:42:19.482Z,14.87
2023-05-04T07:45:09.734Z,15.22
2023-05-04T07:47:57.745Z,15.54
2023-05-04T07:50:47.702Z,15.34
2023-05-04T07:53:35.791Z,15.58
2023-05-04T07:56:23.930Z,15.83
2023-05-04T07:59:12.007Z,16.27
2023-05-04T08:02:00.663Z,16.44
2023-05-04T08:04:48.684Z,17.03
2023-05-04T08:07:38.033Z,17.27
2023-05-04T08:10:26.005Z,17.40
2023-05-04T08:13:14.127Z,17.74
2023-05-04T08:16:04.988Z,18.02
2023-05-04T08:18:53.534Z,17.29
2023-05-04T08:21:41.631Z,17.51
2023-05-04T08:24:31.457Z,18.22
2023-05-04T08:27:19.327Z,18.52
2023-05-04T08:30:08.710Z,18.56
2023-05-04T08:32:56.854Z,18.71
2023-05-04T08:35:45.217Z,19.41
2023-05-04T08:38:33.620Z,20.16
2023-05-04T08:41:23.682Z,20.32
2023-05-04T08:44:12.410Z,20.59
2023-05-04T08:47:00.260Z,20.05
2023-05-04T08:49:50.810Z,19.61
2023-05-04T08:52:39.493Z,19.69
2023-05-04T08:55:27.294Z,20.28
2023-05-04T08:58:18.027Z,20.30
2023-05-04T09:01:08.328Z,20.29
2023-05-04T09:03:57.220Z,19.78
2023-05-04T09:06:47.488Z,20.03
2023-05-04T09:09:35.633Z,20.99
2023-05-04T09:12:23.643Z,20.39
2023-05-04T09:15:20.024Z,21.63
2023-05-04T09:18:10.435Z,22.19
2023-05-04T09:20:58.239Z,22.38
2023-05-04T09:23:51.329Z,21.87
2023-05-04T09:26:39.493Z,21.67
2023-05-04T09:29:27.041Z,22.29
2023-05-04T09:32:16.412Z,22.55
2023-05-04T09:35:04.599Z,22.60
2023-05-04T09:37:52.970Z,23.17
2023-05-04T09:40:42.385Z,22.61
2023-05-04T09:43:40.136Z,23.22
2023-05-04T09:46:28.201Z,22.77
2023-05-04T09:49:18.750Z,21.86
2023-05-04T09:52:07.418Z,22.91
2023-05-04T09:54:55.901Z,23.91
2023-05-04T09:57:45.466Z,24.46
2023-05-04T10:00:33.560Z,24.60
2023-05-04T10:03:21.843Z,24.46
2023-05-04T10:06:12.216Z,24.82
2023-05-04T10:09:01.636Z,23.39
2023-05-04T10:11:50.496Z,24.23
2023-05-04T10:14:39.961Z,23.76
2023-05-04T10:17:41.801Z,23.86
2023-05-04T10:20:47.570Z,22.79
2023-05-04T10:23:58.157Z,22.65
2023-05-04T10:27:00.631Z,22.58
2023-05-04T10:29:51.885Z,22.51
2023-05-04T10:32:41.546Z,21.89
2023-05-04T10:35:29.554Z,22.79
2023-05-04T10:38:17.492Z,23.86
2023-05-04T10:41:16.499Z,24.91
2023-05-04T10:44:05.150Z,23.82
2023-05-04T10:47:01.716Z,24.04
2023-05-04T10:49:50.050Z,23.45
2023-05-04T10:52:50.909Z,23.31
2023-05-04T10:55:44.997Z,23.58
2023-05-04T10:58:34.202Z,23.68
2023-05-04T11:01:22.998Z,24.47
2023-05-04T11:04:20.873Z,25.98
2023-05-04T11:07:09.148Z,27.74
2023-05-04T11:09:57.230Z,28.19
2023-05-04T11:12:45.619Z,27.73
2023-05-04T11:15:44.666Z,28.65
2023-05-04T11:18:37.434Z,27.17
2023-05-04T11:21:26.232Z,28.42
2023-05-04T11:24:14.624Z,26.92
2023-05-04T11:27:03.575Z,26.05
2023-05-04T11:29:56.412Z,26.93
2023-05-04T11:32:47.387Z,27.95
2023-05-04T11:35:35.719Z,27.88
2023-05-04T11:38:23.859Z,26.47
2023-05-04T11:41:13.224Z,26.00
2023-05-04T11:44:01.790Z,25.47
2023-05-04T11:46:51.718Z,26.71
2023-05-04T11:49:41.663Z,27.29
2023-05-04T11:52:30.712Z,26.11
2023-05-04T11:55:28.583Z,26.04
2023-05-04T11:58:24.477Z,24.88
2023-05-04T12:01:12.623Z,24.99
2023-05-04T12:04:00.959Z,25.23
2023-05-04T12:06:50.638Z,26.10
2023-05-04T12:09:46.499Z,27.82
2023-05-04T12:12:37.563Z,27.88
2023-05-04T12:15:36.725Z,27.91
2023-05-04T12:18:29.555Z,26.64
2023-05-04T12:21:20.309Z,27.14
2023-05-04T12:24:09.929Z,27.78
2023-05-04T12:26:57.713Z,29.10
2023-05-04T12:29:45.928Z,28.94
2023-05-04T12:32:33.962Z,29.55
2023-05-04T12:35:21.938Z,30.26
2023-05-04T12:38:09.949Z,30.75
2023-05-04T12:41:02.325Z,30.68
2023-05-04T12:43:50.914Z,30.22
2023-05-04T12:46:39.088Z,28.81
2023-05-04T12:49:35.311Z,27.61
2023-05-04T12:52:23.143Z,28.99
2023-05-04T12:55:11.189Z,29.65
2023-05-04T12:58:02.300Z,28.54
2023-05-04T13:00:50.401Z,29.74
2023-05-04T13:03:38.384Z,31.03
2023-05-04T13:06:26.301Z,30.66
2023-05-04T13:09:14.307Z,30.47
2023-05-04T13:12:03.113Z,29.92
2023-05-04T13:14:55.285Z,29.45
2023-05-04T13:17:44.541Z,27.21
2023-05-04T13:20:33.040Z,27.84
2023-05-04T13:23:21.483Z,28.66
2023-05-04T13:26:09.241Z,28.30
2023-05-04T13:28:57.554Z,27.58
2023-05-04T13:31:47.090Z,26.33
2023-05-04T13:34:35.631Z,27.57
2023-05-04T13:37:23.401Z,29.44
2023-05-04T13:40:12.904Z,29.80
2023-05-04T13:43:01.118Z,30.69
2023-05-04T13:45:49.166Z,31.04
2023-05-04T13:48:38.391Z,29.23
2023-05-04T13:51:26.841Z,29.43
2023-05-04T13:54:14.734Z,29.94
2023-05-04T13:57:02.916Z,29.95
2023-05-04T14:00:05.159Z,30.83
2023-05-04T14:02:54.278Z,30.72
2023-05-04T14:05:43.573Z,31.17
2023-05-04T14:08:31.359Z,31.53
2023-05-04T14:11:20.412Z,31.16
2023-05-04T14:14:08.748Z,30.76
2023-05-04T14:16:56.707Z,30.46
2023-05-04T14:19:45.300Z,28.95
2023-05-04T14:22:37.224Z,28.89
2023-05-04T14:25:26.011Z,26.39
2023-05-04T14:28:14.984Z,28.42
2023-05-04T14:31:08.835Z,29.46
2023-05-04T14:33:57.047Z,29.68
2023-05-04T14:36:45.042Z,29.67
2023-05-04T14:39:34.279Z,30.65
2023-05-04T14:42:22.257Z,30.74
2023-05-04T14:45:11.494Z,31.05
2023-05-04T14:47:59.418Z,29.36
2023-05-04T14:50:47.630Z,29.74
2023-05-04T14:53:37.013Z,30.92
2023-05-04T14:56:29.129Z,31.42
2023-05-04T14:59:19.062Z,30.97
2023-05-04T15:02:08.328Z,31.31
2023-05-04T15:04:56.478Z,30.53
2023-05-04T15:07:44.212Z,30.96
2023-05-04T15:10:32.418Z,31.09
2023-05-04T15:13:21.664Z,30.33
2023-05-04T15:16:09.814Z,29.93
2023-05-04T15:18:57.914Z,30.09
2023-05-04T15:21:46.072Z,30.68
2023-05-04T15:24:34.087Z,31.02
2023-05-04T15:27:21.704Z,31.13
2023-05-04T15:30:12.412Z,30.55
2023-05-04T15:33:00.444Z,30.83
2023-05-04T15:35:48.227Z,30.80
2023-05-04T15:38:36.946Z,31.23
2023-05-04T15:41:27.552Z,31.45
2023-05-04T15:44:15.340Z,31.81
2023-05-04T15:47:05.229Z,32.01
2023-05-04T15:49:53.419Z,31.23
2023-05-04T15:52:41.825Z,31.67
2023-05-04T15:55:29.975Z,31.87
2023-05-04T15:58:17.804Z,31.13
2023-05-04T16:01:09.362Z,31.55
2023-05-04T16:04:00.559Z,31.38
2023-05-04T16:06:48.773Z,30.57
2023-05-04T16:09:36.709Z,30.74
2023-05-04T16:12:24.801Z,30.65
2023-05-04T16:15:13.320Z,30.42
2023-05-04T16:18:01.955Z,30.86
2023-05-04T16:20:54.721Z,31.22
2023-05-04T16:23:42.593Z,30.66
2023-05-04T16:26:30.567Z,30.87
2023-05-04T16:29:18.689Z,31.10
2023-05-04T16:32:07.002Z,31.02
2023-05-04T16:34:54.889Z,31.11
2023-05-04T16:37:45.132Z,31.08
2023-05-04T16:40:35.161Z,30.64
2023-05-04T16:43:24.014Z,30.72
2023-05-04T16:46:12.197Z,30.37
2023-05-04T16:49:00.047Z,30.32
2023-05-04T16:51:48.133Z,30.18
2023-05-04T16:54:37.546Z,30.04
2023-05-04T16:57:25.368Z,30.01
2023-05-04T17:00:14.345Z,29.96
2023-05-04T17:03:02.346Z,29.77
2023-05-04T17:05:53.202Z,28.73
2023-05-04T17:08:41.023Z,28.69
2023-05-04T17:11:31.606Z,28.68
2023-05-04T17:14:19.506Z,28.55
2023-05-04T17:17:08.010Z,28.17
2023-05-04T17:19:55.959Z,28.02
2023-05-04T17:22:44.478Z,27.86
2023-05-04T17:25:33.980Z,27.66
2023-05-04T17:28:23.313Z,27.33
2023-05-04T17:31:12.648Z,27.14
2023-05-04T17:34:00.249Z,26.94
2023-05-04T17:36:49.092Z,26.68
2023-05-04T17:39:36.899Z,26.43
2023-05-04T17:42:24.732Z,26.21
2023-05-04T17:45:14.372Z,25.98
2023-05-04T17:48:02.183Z,25.60
2023-05-04T17:50:50.305Z,25.38
2023-05-04T17:53:38.237Z,25.16
2023-05-04T17:56:26.206Z,24.90
2023-05-04T17:59:14.358Z,24.71
2023-05-04T18:02:04.231Z,24.53
2023-05-04T18:04:52.093Z,24.31
2023-05-04T18:07:40.040Z,24.12
2023-05-04T18:10:28.326Z,23.89
2023-05-04T18:13:16.474Z,23.64
2023-05-04T18:16:04.791Z,23.41
2023-05-04T18:18:54.782Z,23.17
2023-05-04T18:21:43.538Z,22.94
2023-05-04T18:24:33.307Z,22.70
2023-05-04T18:27:21.822Z,22.47
2023-05-04T18:30:11.037Z,22.21
2023-05-04T18:32:58.687Z,21.97
2023-05-04T18:35:47.913Z,21.73
2023-05-04T18:38:36.124Z,21.51
2023-05-04T18:41:25.076Z,21.28
2023-05-04T18:44:13.169Z,21.02
2023-05-04T18:47:01.036Z,20.77
2023-05-04T18:49:52.206Z,20.54
2023-05-04T18:52:41.584Z,20.31
2023-05-04T18:55:29.412Z,20.11
2023-05-04T18:58:20.705Z,19.92
2023-05-04T19:01:08.590Z,19.74
2023-05-04T19:03:56.712Z,19.55
2023-05-04T19:06:45.509Z,19.36
2023-05-04T19:09:36.045Z,19.15
2023-05-04T19:12:26.074Z,18.99
2023-05-04T19:15:14.825Z,18.80
2023-05-04T19:18:03.987Z,18.62
2023-05-04T19:20:52.109Z,18.41
2023-05-04T19:23:40.046Z,18.22
2023-05-04T19:26:32.522Z,18.03
2023-05-04T19:29:20.239Z,17.90
2023-05-04T19:32:19.676Z,17.74
2023-05-04T19:35:11.157Z,17.59
2023-05-04T19:38:01.318Z,17.46
2023-05-04T19:40:49.208Z,17.32
2023-05-04T19:43:39.493Z,17.18
2023-05-04T19:46:31.743Z,17.06
2023-05-04T19:49:29.521Z,16.93
2023-05-04T19:52:19.833Z,16.79
2023-05-04T19:55:08.855Z,16.65
2023-05-04T19:57:59.675Z,16.51
2023-05-04T20:00:51.567Z,16.36
2023-05-04T20:03:39.586Z,16.22
2023-05-04T20:06:27.842Z,16.10
2023-05-04T20:09:15.784Z,15.96
2023-05-04T20:12:04.448Z,15.86
2023-05-04T20:14:54.512Z,15.72
2023-05-04T20:17:49.327Z,15.61
2023-05-04T20:20:37.485Z,15.50
2023-05-04T20:23:25.977Z,15.36
2023-05-04T20:26:13.711Z,15.26
2023-05-04T20:29:01.785Z,15.16
2023-05-04T20:31:49.787Z,15.02
2023-05-04T20:34:39.832Z,14.92
2023-05-04T20:37:27.693Z,14.81
2023-05-04T20:40:16.770Z,14.70
2023-05-04T20:43:05.398Z,14.60
2023-05-04T20:45:54.698Z,14.49
2023-05-04T20:48:44.776Z,14.39
2023-05-04T20:51:33.998Z,14.29
2023-05-04T20:54:22.576Z,14.18
2023-05-04T20:57:10.446Z,14.09
2023-05-04T21:00:02.598Z,13.97
2023-05-04T21:02:50.777Z,13.89
2023-05-04T21:05:40.735Z,13.82
2023-05-04T21:08:29.944Z,13.70
2023-05-04T21:11:18.108Z,13.62
2023-05-04T21:14:05.926Z,13.53
2023-05-04T21:16:56.461Z,13.43
2023-05-04T21:19:44.342Z,13.36
2023-05-04T21:22:32.406Z,13.26
2023-05-04T21:25:21.635Z,13.16
2023-05-04T21:28:09.601Z,13.07
2023-05-04T21:30:57.462Z,12.98
2023-05-04T21:33:45.388Z,12.90
2023-05-04T21:36:33.464Z,12.84
2023-05-04T21:39:21.708Z,12.74
2023-05-04T21:42:11.284Z,12.67
2023-05-04T21:44:59.912Z,12.59
2023-05-04T21:47:47.864Z,12.52
2023-05-04T21:50:36.107Z,12.45
2023-05-04T21:53:23.852Z,12.37
2023-05-04T21:56:12.912Z,12.28
2023-05-04T21:59:02.219Z,12.19
2023-05-04T22:01:50.059Z,12.12
2023-05-04T22:04:38.244Z,12.05
2023-05-04T22:07:26.907Z,11.95
2023-05-04T22:10:14.653Z,11.89
2023-05-04T22:13:02.673Z,11.81
2023-05-04T22:15:52.096Z,11.75
2023-05-04T22:18:41.028Z,11.68
2023-05-04T22:21:29.318Z,11.61
2023-05-04T22:24:17.492Z,11.54
2023-05-04T22:27:05.514Z,11.53
2023-05-04T22:29:53.537Z,11.48
2023-05-04T22:32:42.837Z,11.40
2023-05-04T22:35:31.369Z,11.32
2023-05-04T22:38:19.198Z,11.24
2023-05-04T22:41:07.429Z,11.17
2023-05-04T22:43:55.500Z,11.10
2023-05-04T22:46:43.751Z,11.02
2023-05-04T22:49:32.884Z,10.95
2023-05-04T22:52:20.794Z,10.90
2023-05-04T22:55:09.905Z,10.82
2023-05-04T22:57:57.806Z,10.77
2023-05-04T23:00:47.834Z,10.71
2023-05-04T23:03:35.920Z,10.64
2023-05-04T23:06:25.615Z,10.57
2023-05-04T23:09:14.678Z,10.52
2023-05-04T23:12:02.467Z,10.46
2023-05-04T23:14:52.448Z,10.39
2023-05-04T23:17:41.077Z,10.32
2023-05-04T23:20:29.355Z,10.26
2023-05-04T23:23:18.442Z,10.20
2023-05-04T23:26:06.467Z,10.16
2023-05-04T23:28:54.562Z,10.11
2023-05-04T23:31:42.606Z,10.06
2023-05-04T23:34:30.494Z,10.00
2023-05-04T23:37:18.455Z,9.94
2023-05-04T23:40:10.214Z,9.89
2023-05-04T23:42:58.578Z,9.83
2023-05-04T23:45:47.439Z,9.78
2023-05-04T23:48:35.473Z,9.74
2023-05-04T23:51:23.503Z,9.68
2023-05-04T23:54:11.157Z,9.64
2023-05-04T23:57:00.479Z,9.59
2023-05-04T23:59:48.608Z,9.55
